Archival Weather

Chicago/Rockford Intl

Rockford, Illinois (KRFD)

Report from: Friday, February 3, 2023 8:54 AM CST
Current time: Tuesday, June 25, 2024 4:33 AM CDT

Current weather – Weather history – Daily summaries
Weather forecast

Temperature-18.9°C (-2.0°F)
Wind chill-29.6°C (-21.2°F)
Dew point-26.1°C (-15.0°F)
Winds 12 kts (6.2 m/s, 13.8 mph) North-Northwest (330°)
Visibility10 mi. (16.1 km)
Clouds Ceiling: Broken clouds 12,000 ft. (3,658 m)
Altimeter30.65 in.Hg (1038 mB)
Relative humidity53 %
Density altitude-5,221 ft. (-1,591 m)
Sea-level pressure104.0 kPa (1040 mB, 30.70 in.Hg)
Remarks Automated weather observing station with precipitation discriminator
Pressure rising more quickly
Flight conditions Visual Meteorological Conditions
Raw dataKRFD 031454Z 33012KT 10SM BKN120 M19/M26 A3065 RMK AO2 SLP397 T11891261 53033
An unhandled exception has occurred. See browser dev tools for details. Reload 🗙